sensor_id;sensor_type;location;lat;lon;timestamp;P1;durP1;ratioP1;P2;durP2;ratioP2
30249;SDS011;17064;47.974;13.826;2023-04-09T00:04:22;20.83;;;10.88;;
30249;SDS011;17064;47.974;13.826;2023-04-09T00:09:23;17.85;;;10.40;;
30249;SDS011;17064;47.974;13.826;2023-04-09T00:14:23;19.23;;;10.40;;
30249;SDS011;17064;47.974;13.826;2023-04-09T00:19:24;18.60;;;10.25;;
30249;SDS011;17064;47.974;13.826;2023-04-09T00:24:25;17.58;;;10.30;;
30249;SDS011;17064;47.974;13.826;2023-04-09T00:29:25;20.45;;;11.13;;
30249;SDS011;17064;47.974;13.826;2023-04-09T00:34:26;21.30;;;11.32;;
30249;SDS011;17064;47.974;13.826;2023-04-09T00:39:27;20.63;;;11.80;;
30249;SDS011;17064;47.974;13.826;2023-04-09T00:44:27;20.15;;;10.82;;
30249;SDS011;17064;47.974;13.826;2023-04-09T00:49:28;23.73;;;11.40;;
30249;SDS011;17064;47.974;13.826;2023-04-09T00:54:29;22.55;;;11.82;;
30249;SDS011;17064;47.974;13.826;2023-04-09T00:59:31;18.15;;;9.98;;
30249;SDS011;17064;47.974;13.826;2023-04-09T01:04:31;22.70;;;12.00;;
30249;SDS011;17064;47.974;13.826;2023-04-09T01:09:34;19.55;;;11.13;;
30249;SDS011;17064;47.974;13.826;2023-04-09T01:20:09;20.95;;;11.07;;
30249;SDS011;17064;47.974;13.826;2023-04-09T01:25:18;21.30;;;11.10;;
30249;SDS011;17064;47.974;13.826;2023-04-09T01:30:22;22.63;;;11.02;;
30249;SDS011;17064;47.974;13.826;2023-04-09T01:35:24;19.77;;;10.25;;
30249;SDS011;17064;47.974;13.826;2023-04-09T01:40:27;20.85;;;10.52;;
30249;SDS011;17064;47.974;13.826;2023-04-09T01:45:28;21.88;;;11.05;;
30249;SDS011;17064;47.974;13.826;2023-04-09T01:50:29;20.25;;;10.88;;
30249;SDS011;17064;47.974;13.826;2023-04-09T01:55:31;19.23;;;10.63;;
30249;SDS011;17064;47.974;13.826;2023-04-09T02:00:36;18.45;;;10.05;;
30249;SDS011;17064;47.974;13.826;2023-04-09T02:05:40;18.33;;;10.27;;
30249;SDS011;17064;47.974;13.826;2023-04-09T02:10:46;19.65;;;10.77;;
30249;SDS011;17064;47.974;13.826;2023-04-09T02:15:55;18.58;;;9.02;;
30249;SDS011;17064;47.974;13.826;2023-04-09T02:20:58;20.90;;;11.00;;
30249;SDS011;17064;47.974;13.826;2023-04-09T02:25:59;19.77;;;10.43;;
30249;SDS011;17064;47.974;13.826;2023-04-09T02:31:00;27.27;;;11.25;;
30249;SDS011;17064;47.974;13.826;2023-04-09T02:36:01;21.70;;;11.35;;
30249;SDS011;17064;47.974;13.826;2023-04-09T02:41:01;22.75;;;11.68;;
30249;SDS011;17064;47.974;13.826;2023-04-09T02:46:02;20.95;;;11.00;;
30249;SDS011;17064;47.974;13.826;2023-04-09T02:51:04;20.27;;;11.07;;
30249;SDS011;17064;47.974;13.826;2023-04-09T02:56:05;19.88;;;10.38;;
30249;SDS011;17064;47.974;13.826;2023-04-09T03:01:06;19.83;;;10.23;;
30249;SDS011;17064;47.974;13.826;2023-04-09T03:06:07;16.88;;;9.00;;
30249;SDS011;17064;47.974;13.826;2023-04-09T03:11:08;21.70;;;10.57;;
30249;SDS011;17064;47.974;13.826;2023-04-09T03:16:08;18.35;;;10.35;;
30249;SDS011;17064;47.974;13.826;2023-04-09T03:21:09;19.33;;;9.30;;
30249;SDS011;17064;47.974;13.826;2023-04-09T03:26:10;16.65;;;9.77;;
30249;SDS011;17064;47.974;13.826;2023-04-09T03:31:11;16.45;;;8.60;;
30249;SDS011;17064;47.974;13.826;2023-04-09T03:36:12;17.50;;;9.18;;
30249;SDS011;17064;47.974;13.826;2023-04-09T03:41:13;16.48;;;8.90;;
30249;SDS011;17064;47.974;13.826;2023-04-09T03:46:15;15.75;;;8.73;;
30249;SDS011;17064;47.974;13.826;2023-04-09T03:51:17;17.17;;;9.18;;
30249;SDS011;17064;47.974;13.826;2023-04-09T03:56:18;15.20;;;8.40;;
30249;SDS011;17064;47.974;13.826;2023-04-09T04:01:18;17.50;;;9.70;;
30249;SDS011;17064;47.974;13.826;2023-04-09T04:06:19;20.50;;;11.13;;
30249;SDS011;17064;47.974;13.826;2023-04-09T04:11:20;22.13;;;11.35;;
30249;SDS011;17064;47.974;13.826;2023-04-09T04:16:21;23.00;;;11.68;;
30249;SDS011;17064;47.974;13.826;2023-04-09T04:21:21;21.52;;;11.88;;
30249;SDS011;17064;47.974;13.826;2023-04-09T04:26:22;22.90;;;11.82;;
30249;SDS011;17064;47.974;13.826;2023-04-09T04:31:23;21.50;;;11.85;;
30249;SDS011;17064;47.974;13.826;2023-04-09T04:36:23;21.30;;;11.10;;
30249;SDS011;17064;47.974;13.826;2023-04-09T04:41:25;23.33;;;13.13;;
30249;SDS011;17064;47.974;13.826;2023-04-09T04:46:26;23.73;;;12.80;;
30249;SDS011;17064;47.974;13.826;2023-04-09T04:51:26;28.98;;;13.90;;
30249;SDS011;17064;47.974;13.826;2023-04-09T04:56:30;32.28;;;15.95;;
30249;SDS011;17064;47.974;13.826;2023-04-09T05:01:31;26.60;;;12.90;;
30249;SDS011;17064;47.974;13.826;2023-04-09T05:06:31;28.92;;;14.38;;
30249;SDS011;17064;47.974;13.826;2023-04-09T05:11:32;25.08;;;13.82;;
30249;SDS011;17064;47.974;13.826;2023-04-09T05:16:33;30.80;;;13.77;;
30249;SDS011;17064;47.974;13.826;2023-04-09T05:21:34;33.53;;;15.13;;
30249;SDS011;17064;47.974;13.826;2023-04-09T05:26:34;30.17;;;13.57;;
30249;SDS011;17064;47.974;13.826;2023-04-09T05:31:35;27.98;;;14.20;;
30249;SDS011;17064;47.974;13.826;2023-04-09T05:36:36;25.70;;;13.15;;
30249;SDS011;17064;47.974;13.826;2023-04-09T05:41:36;29.15;;;13.90;;
30249;SDS011;17064;47.974;13.826;2023-04-09T05:46:37;25.20;;;12.35;;
30249;SDS011;17064;47.974;13.826;2023-04-09T05:51:38;21.73;;;11.38;;
30249;SDS011;17064;47.974;13.826;2023-04-09T05:56:38;26.23;;;11.65;;
30249;SDS011;17064;47.974;13.826;2023-04-09T06:01:39;22.67;;;11.75;;
30249;SDS011;17064;47.974;13.826;2023-04-09T06:06:40;24.05;;;10.90;;
30249;SDS011;17064;47.974;13.826;2023-04-09T06:11:41;24.63;;;11.55;;
30249;SDS011;17064;47.974;13.826;2023-04-09T06:16:41;23.75;;;11.07;;
30249;SDS011;17064;47.974;13.826;2023-04-09T06:21:42;24.13;;;11.45;;
30249;SDS011;17064;47.974;13.826;2023-04-09T06:26:43;19.90;;;10.77;;
30249;SDS011;17064;47.974;13.826;2023-04-09T06:31:43;23.90;;;9.98;;
30249;SDS011;17064;47.974;13.826;2023-04-09T06:36:45;24.50;;;12.48;;
30249;SDS011;17064;47.974;13.826;2023-04-09T06:41:46;21.27;;;10.60;;
30249;SDS011;17064;47.974;13.826;2023-04-09T06:46:46;27.45;;;12.27;;
30249;SDS011;17064;47.974;13.826;2023-04-09T06:51:47;25.77;;;12.02;;
30249;SDS011;17064;47.974;13.826;2023-04-09T06:56:48;24.90;;;11.80;;
30249;SDS011;17064;47.974;13.826;2023-04-09T07:01:48;26.25;;;12.85;;
30249;SDS011;17064;47.974;13.826;2023-04-09T07:06:49;23.30;;;11.50;;
30249;SDS011;17064;47.974;13.826;2023-04-09T07:11:51;22.92;;;11.65;;
30249;SDS011;17064;47.974;13.826;2023-04-09T07:16:52;21.73;;;10.93;;
30249;SDS011;17064;47.974;13.826;2023-04-09T07:21:53;20.40;;;10.80;;
30249;SDS011;17064;47.974;13.826;2023-04-09T07:26:54;24.17;;;11.70;;
30249;SDS011;17064;47.974;13.826;2023-04-09T07:31:55;23.63;;;11.75;;
30249;SDS011;17064;47.974;13.826;2023-04-09T07:36:55;24.77;;;12.32;;
30249;SDS011;17064;47.974;13.826;2023-04-09T07:41:56;24.95;;;12.52;;
30249;SDS011;17064;47.974;13.826;2023-04-09T07:46:59;23.60;;;11.55;;
30249;SDS011;17064;47.974;13.826;2023-04-09T07:52:00;22.70;;;11.98;;
30249;SDS011;17064;47.974;13.826;2023-04-09T07:57:01;21.65;;;10.93;;
30249;SDS011;17064;47.974;13.826;2023-04-09T08:02:02;25.02;;;12.98;;
30249;SDS011;17064;47.974;13.826;2023-04-09T08:07:02;24.13;;;11.23;;
30249;SDS011;17064;47.974;13.826;2023-04-09T08:12:03;24.08;;;12.57;;
30249;SDS011;17064;47.974;13.826;2023-04-09T08:17:04;29.17;;;13.75;;
30249;SDS011;17064;47.974;13.826;2023-04-09T08:22:05;23.90;;;11.60;;
30249;SDS011;17064;47.974;13.826;2023-04-09T08:27:05;25.80;;;13.18;;
30249;SDS011;17064;47.974;13.826;2023-04-09T08:32:06;21.45;;;11.50;;
30249;SDS011;17064;47.974;13.826;2023-04-09T08:37:07;20.58;;;11.88;;
30249;SDS011;17064;47.974;13.826;2023-04-09T08:42:08;25.73;;;12.95;;
30249;SDS011;17064;47.974;13.826;2023-04-09T08:47:11;19.90;;;11.50;;
30249;SDS011;17064;47.974;13.826;2023-04-09T08:52:12;24.90;;;11.27;;
30249;SDS011;17064;47.974;13.826;2023-04-09T08:57:15;22.70;;;11.33;;
30249;SDS011;17064;47.974;13.826;2023-04-09T09:02:16;20.23;;;9.80;;
30249;SDS011;17064;47.974;13.826;2023-04-09T09:07:17;19.50;;;10.15;;
30249;SDS011;17064;47.974;13.826;2023-04-09T09:12:37;17.85;;;9.85;;
30249;SDS011;17064;47.974;13.826;2023-04-09T09:18:00;19.88;;;9.65;;
30249;SDS011;17064;47.974;13.826;2023-04-09T09:23:01;18.50;;;9.82;;
30249;SDS011;17064;47.974;13.826;2023-04-09T09:28:09;18.00;;;8.90;;
30249;SDS011;17064;47.974;13.826;2023-04-09T09:33:11;18.05;;;9.52;;
30249;SDS011;17064;47.974;13.826;2023-04-09T09:38:11;20.05;;;9.88;;
30249;SDS011;17064;47.974;13.826;2023-04-09T09:43:12;18.70;;;9.80;;
30249;SDS011;17064;47.974;13.826;2023-04-09T09:48:13;16.25;;;8.45;;
30249;SDS011;17064;47.974;13.826;2023-04-09T09:53:15;21.13;;;10.10;;
30249;SDS011;17064;47.974;13.826;2023-04-09T09:58:21;20.92;;;9.80;;
30249;SDS011;17064;47.974;13.826;2023-04-09T10:03:28;15.07;;;9.05;;
30249;SDS011;17064;47.974;13.826;2023-04-09T10:08:31;13.75;;;8.38;;
30249;SDS011;17064;47.974;13.826;2023-04-09T10:13:34;18.00;;;9.00;;
30249;SDS011;17064;47.974;13.826;2023-04-09T10:18:38;15.30;;;7.85;;
30249;SDS011;17064;47.974;13.826;2023-04-09T10:23:42;14.98;;;8.13;;
30249;SDS011;17064;47.974;13.826;2023-04-09T10:28:44;14.15;;;8.07;;
30249;SDS011;17064;47.974;13.826;2023-04-09T10:33:45;14.65;;;7.78;;
30249;SDS011;17064;47.974;13.826;2023-04-09T10:38:46;14.30;;;7.80;;
30249;SDS011;17064;47.974;13.826;2023-04-09T10:43:47;11.77;;;7.35;;
30249;SDS011;17064;47.974;13.826;2023-04-09T10:48:48;14.88;;;8.38;;
30249;SDS011;17064;47.974;13.826;2023-04-09T10:53:57;14.43;;;8.90;;
30249;SDS011;17064;47.974;13.826;2023-04-09T10:58:58;13.75;;;8.48;;
30249;SDS011;17064;47.974;13.826;2023-04-09T11:04:11;12.20;;;7.20;;
30249;SDS011;17064;47.974;13.826;2023-04-09T11:09:17;11.45;;;6.28;;
30249;SDS011;17064;47.974;13.826;2023-04-09T11:14:20;14.32;;;8.27;;
30249;SDS011;17064;47.974;13.826;2023-04-09T11:19:22;12.93;;;7.40;;
30249;SDS011;17064;47.974;13.826;2023-04-09T11:24:23;10.10;;;6.00;;
30249;SDS011;17064;47.974;13.826;2023-04-09T11:29:24;11.90;;;6.45;;
30249;SDS011;17064;47.974;13.826;2023-04-09T11:34:28;10.00;;;6.40;;
30249;SDS011;17064;47.974;13.826;2023-04-09T11:39:29;10.20;;;5.80;;
30249;SDS011;17064;47.974;13.826;2023-04-09T11:44:30;12.68;;;5.97;;
30249;SDS011;17064;47.974;13.826;2023-04-09T11:49:30;8.40;;;5.45;;
30249;SDS011;17064;47.974;13.826;2023-04-09T11:54:32;9.25;;;5.55;;
30249;SDS011;17064;47.974;13.826;2023-04-09T11:59:33;9.00;;;5.07;;
30249;SDS011;17064;47.974;13.826;2023-04-09T12:04:37;8.88;;;5.97;;
30249;SDS011;17064;47.974;13.826;2023-04-09T12:09:47;10.95;;;7.03;;
30249;SDS011;17064;47.974;13.826;2023-04-09T12:14:48;9.75;;;6.43;;
30249;SDS011;17064;47.974;13.826;2023-04-09T12:19:50;11.10;;;6.35;;
30249;SDS011;17064;47.974;13.826;2023-04-09T12:24:51;9.63;;;6.55;;
30249;SDS011;17064;47.974;13.826;2023-04-09T12:29:52;8.02;;;5.88;;
30249;SDS011;17064;47.974;13.826;2023-04-09T12:34:52;11.13;;;6.55;;
30249;SDS011;17064;47.974;13.826;2023-04-09T12:39:53;8.65;;;5.93;;
30249;SDS011;17064;47.974;13.826;2023-04-09T12:44:54;8.60;;;5.45;;
30249;SDS011;17064;47.974;13.826;2023-04-09T12:49:55;7.35;;;5.97;;
30249;SDS011;17064;47.974;13.826;2023-04-09T12:54:55;8.68;;;5.93;;
30249;SDS011;17064;47.974;13.826;2023-04-09T12:59:56;6.88;;;5.05;;
30249;SDS011;17064;47.974;13.826;2023-04-09T13:04:58;7.70;;;5.25;;
30249;SDS011;17064;47.974;13.826;2023-04-09T13:09:59;7.68;;;5.10;;
30249;SDS011;17064;47.974;13.826;2023-04-09T13:15:00;7.88;;;5.32;;
30249;SDS011;17064;47.974;13.826;2023-04-09T13:20:01;6.50;;;4.72;;
30249;SDS011;17064;47.974;13.826;2023-04-09T13:25:02;8.13;;;5.20;;
30249;SDS011;17064;47.974;13.826;2023-04-09T13:30:04;8.15;;;5.78;;
30249;SDS011;17064;47.974;13.826;2023-04-09T13:35:05;7.95;;;6.10;;
30249;SDS011;17064;47.974;13.826;2023-04-09T13:40:06;7.47;;;5.55;;
30249;SDS011;17064;47.974;13.826;2023-04-09T13:45:10;7.53;;;5.47;;
30249;SDS011;17064;47.974;13.826;2023-04-09T13:50:11;8.02;;;5.72;;
30249;SDS011;17064;47.974;13.826;2023-04-09T13:55:12;8.10;;;5.80;;
30249;SDS011;17064;47.974;13.826;2023-04-09T14:00:13;9.13;;;6.03;;
30249;SDS011;17064;47.974;13.826;2023-04-09T14:05:14;8.43;;;6.15;;
30249;SDS011;17064;47.974;13.826;2023-04-09T14:10:15;11.27;;;6.47;;
30249;SDS011;17064;47.974;13.826;2023-04-09T14:15:16;9.13;;;6.10;;
30249;SDS011;17064;47.974;13.826;2023-04-09T14:20:16;7.63;;;5.68;;
30249;SDS011;17064;47.974;13.826;2023-04-09T14:25:19;8.32;;;5.85;;
30249;SDS011;17064;47.974;13.826;2023-04-09T14:30:19;7.72;;;5.28;;
30249;SDS011;17064;47.974;13.826;2023-04-09T14:35:21;9.18;;;6.13;;
30249;SDS011;17064;47.974;13.826;2023-04-09T14:40:22;8.13;;;5.88;;
30249;SDS011;17064;47.974;13.826;2023-04-09T14:45:23;9.68;;;6.50;;
30249;SDS011;17064;47.974;13.826;2023-04-09T14:50:23;9.45;;;6.43;;
30249;SDS011;17064;47.974;13.826;2023-04-09T14:55:24;11.68;;;7.40;;
30249;SDS011;17064;47.974;13.826;2023-04-09T15:00:25;11.98;;;7.70;;
30249;SDS011;17064;47.974;13.826;2023-04-09T15:05:26;11.48;;;7.50;;
30249;SDS011;17064;47.974;13.826;2023-04-09T15:10:27;14.63;;;8.98;;
30249;SDS011;17064;47.974;13.826;2023-04-09T15:15:28;12.23;;;8.18;;
30249;SDS011;17064;47.974;13.826;2023-04-09T15:20:28;13.73;;;9.20;;
30249;SDS011;17064;47.974;13.826;2023-04-09T15:25:29;13.48;;;8.48;;
30249;SDS011;17064;47.974;13.826;2023-04-09T15:30:30;15.07;;;9.73;;
30249;SDS011;17064;47.974;13.826;2023-04-09T15:35:31;14.13;;;9.45;;
30249;SDS011;17064;47.974;13.826;2023-04-09T15:40:32;14.35;;;9.27;;
30249;SDS011;17064;47.974;13.826;2023-04-09T15:45:32;15.68;;;10.05;;
30249;SDS011;17064;47.974;13.826;2023-04-09T15:50:33;15.52;;;10.20;;
30249;SDS011;17064;47.974;13.826;2023-04-09T15:55:34;18.48;;;10.27;;
30249;SDS011;17064;47.974;13.826;2023-04-09T16:00:34;19.30;;;10.02;;
30249;SDS011;17064;47.974;13.826;2023-04-09T16:05:35;25.70;;;12.73;;
30249;SDS011;17064;47.974;13.826;2023-04-09T16:10:36;17.13;;;10.45;;
30249;SDS011;17064;47.974;13.826;2023-04-09T16:15:37;14.98;;;9.88;;
30249;SDS011;17064;47.974;13.826;2023-04-09T16:20:37;22.10;;;11.50;;
30249;SDS011;17064;47.974;13.826;2023-04-09T16:25:38;18.92;;;10.77;;
30249;SDS011;17064;47.974;13.826;2023-04-09T16:30:39;16.33;;;10.63;;
30249;SDS011;17064;47.974;13.826;2023-04-09T16:35:40;16.42;;;10.23;;
30249;SDS011;17064;47.974;13.826;2023-04-09T16:40:42;18.52;;;10.20;;
30249;SDS011;17064;47.974;13.826;2023-04-09T16:45:42;18.13;;;11.35;;
30249;SDS011;17064;47.974;13.826;2023-04-09T16:50:43;19.63;;;11.18;;
30249;SDS011;17064;47.974;13.826;2023-04-09T16:55:44;19.38;;;11.05;;
30249;SDS011;17064;47.974;13.826;2023-04-09T17:00:44;18.25;;;10.30;;
30249;SDS011;17064;47.974;13.826;2023-04-09T17:05:45;19.23;;;10.80;;
30249;SDS011;17064;47.974;13.826;2023-04-09T17:10:47;15.13;;;9.48;;
30249;SDS011;17064;47.974;13.826;2023-04-09T17:15:53;21.25;;;10.40;;
30249;SDS011;17064;47.974;13.826;2023-04-09T17:20:54;16.38;;;10.27;;
30249;SDS011;17064;47.974;13.826;2023-04-09T17:25:55;18.17;;;10.30;;
30249;SDS011;17064;47.974;13.826;2023-04-09T17:30:55;15.05;;;9.82;;
30249;SDS011;17064;47.974;13.826;2023-04-09T17:35:56;19.63;;;11.55;;
30249;SDS011;17064;47.974;13.826;2023-04-09T17:40:57;20.83;;;11.50;;
30249;SDS011;17064;47.974;13.826;2023-04-09T17:45:58;20.13;;;10.95;;
30249;SDS011;17064;47.974;13.826;2023-04-09T17:50:59;19.65;;;11.40;;
30249;SDS011;17064;47.974;13.826;2023-04-09T17:55:59;19.95;;;11.13;;
30249;SDS011;17064;47.974;13.826;2023-04-09T18:01:05;22.40;;;10.85;;
30249;SDS011;17064;47.974;13.826;2023-04-09T18:06:06;19.73;;;10.75;;
30249;SDS011;17064;47.974;13.826;2023-04-09T18:11:07;18.10;;;10.90;;
30249;SDS011;17064;47.974;13.826;2023-04-09T18:16:08;17.95;;;10.88;;
30249;SDS011;17064;47.974;13.826;2023-04-09T18:21:10;21.48;;;11.23;;
30249;SDS011;17064;47.974;13.826;2023-04-09T18:26:11;23.10;;;12.13;;
30249;SDS011;17064;47.974;13.826;2023-04-09T18:31:12;21.90;;;11.77;;
30249;SDS011;17064;47.974;13.826;2023-04-09T18:36:13;18.50;;;11.15;;
30249;SDS011;17064;47.974;13.826;2023-04-09T18:41:20;19.63;;;11.02;;
30249;SDS011;17064;47.974;13.826;2023-04-09T18:46:22;19.67;;;11.35;;
30249;SDS011;17064;47.974;13.826;2023-04-09T18:51:23;20.42;;;11.63;;
30249;SDS011;17064;47.974;13.826;2023-04-09T18:56:25;21.38;;;11.40;;
30249;SDS011;17064;47.974;13.826;2023-04-09T19:01:28;18.10;;;11.27;;
30249;SDS011;17064;47.974;13.826;2023-04-09T19:06:28;21.02;;;11.55;;
30249;SDS011;17064;47.974;13.826;2023-04-09T19:11:29;21.65;;;12.32;;
30249;SDS011;17064;47.974;13.826;2023-04-09T19:16:30;21.13;;;12.75;;
30249;SDS011;17064;47.974;13.826;2023-04-09T19:21:31;21.60;;;11.50;;
30249;SDS011;17064;47.974;13.826;2023-04-09T19:26:32;19.48;;;10.30;;
30249;SDS011;17064;47.974;13.826;2023-04-09T19:31:33;15.30;;;9.88;;
30249;SDS011;17064;47.974;13.826;2023-04-09T19:36:34;17.75;;;10.30;;
30249;SDS011;17064;47.974;13.826;2023-04-09T19:41:34;17.38;;;9.70;;
30249;SDS011;17064;47.974;13.826;2023-04-09T19:46:35;16.15;;;8.95;;
30249;SDS011;17064;47.974;13.826;2023-04-09T19:51:36;14.23;;;7.85;;
30249;SDS011;17064;47.974;13.826;2023-04-09T19:56:37;15.88;;;8.00;;
30249;SDS011;17064;47.974;13.826;2023-04-09T20:01:37;10.88;;;6.72;;
30249;SDS011;17064;47.974;13.826;2023-04-09T20:06:38;10.38;;;6.40;;
30249;SDS011;17064;47.974;13.826;2023-04-09T20:11:39;10.68;;;6.00;;
30249;SDS011;17064;47.974;13.826;2023-04-09T20:16:41;11.13;;;6.38;;
30249;SDS011;17064;47.974;13.826;2023-04-09T20:21:41;10.57;;;6.57;;
30249;SDS011;17064;47.974;13.826;2023-04-09T20:26:42;12.00;;;6.22;;
30249;SDS011;17064;47.974;13.826;2023-04-09T20:31:43;11.48;;;6.22;;
30249;SDS011;17064;47.974;13.826;2023-04-09T20:36:44;9.80;;;5.70;;
30249;SDS011;17064;47.974;13.826;2023-04-09T20:41:47;9.25;;;5.80;;
30249;SDS011;17064;47.974;13.826;2023-04-09T20:47:06;9.45;;;5.57;;
30249;SDS011;17064;47.974;13.826;2023-04-09T20:52:07;8.85;;;5.53;;
30249;SDS011;17064;47.974;13.826;2023-04-09T20:57:08;10.48;;;5.93;;
30249;SDS011;17064;47.974;13.826;2023-04-09T21:02:11;12.98;;;7.25;;
30249;SDS011;17064;47.974;13.826;2023-04-09T21:07:13;16.53;;;9.60;;
30249;SDS011;17064;47.974;13.826;2023-04-09T21:12:13;11.05;;;6.88;;
30249;SDS011;17064;47.974;13.826;2023-04-09T21:17:14;12.45;;;6.35;;
30249;SDS011;17064;47.974;13.826;2023-04-09T21:22:15;13.25;;;7.68;;
30249;SDS011;17064;47.974;13.826;2023-04-09T21:27:16;13.07;;;8.23;;
30249;SDS011;17064;47.974;13.826;2023-04-09T21:32:17;16.35;;;8.02;;
30249;SDS011;17064;47.974;13.826;2023-04-09T21:37:17;16.77;;;8.90;;
30249;SDS011;17064;47.974;13.826;2023-04-09T21:42:18;14.52;;;8.45;;
30249;SDS011;17064;47.974;13.826;2023-04-09T21:47:19;15.15;;;8.13;;
30249;SDS011;17064;47.974;13.826;2023-04-09T21:52:19;15.25;;;9.00;;
30249;SDS011;17064;47.974;13.826;2023-04-09T21:57:20;17.02;;;8.55;;
30249;SDS011;17064;47.974;13.826;2023-04-09T22:02:21;11.95;;;6.97;;
30249;SDS011;17064;47.974;13.826;2023-04-09T22:07:22;16.52;;;8.82;;
30249;SDS011;17064;47.974;13.826;2023-04-09T22:12:24;12.65;;;8.35;;
30249;SDS011;17064;47.974;13.826;2023-04-09T22:17:25;15.30;;;8.00;;
30249;SDS011;17064;47.974;13.826;2023-04-09T22:22:26;14.95;;;7.53;;
30249;SDS011;17064;47.974;13.826;2023-04-09T22:27:27;15.52;;;8.05;;
30249;SDS011;17064;47.974;13.826;2023-04-09T22:32:27;13.43;;;7.30;;
30249;SDS011;17064;47.974;13.826;2023-04-09T22:37:28;14.00;;;7.68;;
30249;SDS011;17064;47.974;13.826;2023-04-09T22:42:29;14.63;;;7.05;;
30249;SDS011;17064;47.974;13.826;2023-04-09T22:47:31;13.82;;;7.80;;
30249;SDS011;17064;47.974;13.826;2023-04-09T22:52:32;14.65;;;7.30;;
30249;SDS011;17064;47.974;13.826;2023-04-09T22:57:32;13.50;;;7.07;;
